Terminal Aerodrome Forecast
Issued by NWS Louisville, KY

Home | Current Version | Previous Version | Text Only | Print | Product List | Glossary On
Versions: 1 2 3 4 5 6 7 8 9 10 11 12 13 14 15 16 17 18 19 20
000
FTUS43 KLMK 302320
TAFSDF
TAF
KSDF 302320Z 3100/0106 32010KT P6SM FEW060 FEW250
     FM310200 VRB03KT P6SM SKC
     FM311600 30007KT P6SM FEW060=

USA.gov is the U.S. government's official web portal to all federal, state and local government web resources and services.